createdAt,value
2023-04-02T00:00:33.556Z,3.0
2023-04-02T00:01:34.172Z,2.8
2023-04-02T00:02:34.866Z,2.3
2023-04-02T00:03:35.583Z,2.5
2023-04-02T00:04:36.183Z,2.5
2023-04-02T00:05:37.089Z,2.4
2023-04-02T00:06:37.794Z,2.4
2023-04-02T00:07:38.386Z,2.5
2023-04-02T00:08:39.045Z,2.3
2023-04-02T00:09:39.609Z,2.0
2023-04-02T00:10:40.182Z,2.2
2023-04-02T00:11:40.796Z,2.4
2023-04-02T00:12:41.396Z,1.9
2023-04-02T00:13:41.981Z,2.5
2023-04-02T00:14:42.575Z,2.0
2023-04-02T00:15:43.166Z,2.2
2023-04-02T00:16:43.821Z,2.0
2023-04-02T00:17:44.396Z,1.9
2023-04-02T00:18:44.988Z,2.0
2023-04-02T00:19:45.599Z,2.0
2023-04-02T00:20:46.174Z,2.2
2023-04-02T00:21:46.769Z,2.6
2023-04-02T00:22:47.359Z,2.2
2023-04-02T00:23:47.952Z,2.2
2023-04-02T00:24:48.559Z,2.1
2023-04-02T00:25:49.139Z,2.6
2023-04-02T00:26:49.731Z,2.7
2023-04-02T00:27:50.325Z,2.6
2023-04-02T00:28:50.921Z,2.9
2023-04-02T00:29:51.510Z,2.9
2023-04-02T00:30:52.104Z,3.1
2023-04-02T00:31:52.840Z,2.5
2023-04-02T00:32:53.504Z,2.8
2023-04-02T00:33:54.072Z,2.8
2023-04-02T00:34:54.659Z,2.9
2023-04-02T00:35:55.357Z,2.6
2023-04-02T00:36:55.913Z,2.8
2023-04-02T00:37:56.513Z,3.4
2023-04-02T00:38:57.106Z,3.1
2023-04-02T00:39:57.706Z,3.4
2023-04-02T00:40:58.291Z,2.7
2023-04-02T00:41:58.882Z,3.3
2023-04-02T00:42:59.485Z,3.5
2023-04-02T00:44:00.098Z,3.4
2023-04-02T00:45:00.662Z,3.3
2023-04-02T00:46:01.344Z,3.3
2023-04-02T00:47:01.897Z,3.0
2023-04-02T00:48:02.526Z,3.4
2023-04-02T00:49:03.094Z,4.5
2023-04-02T00:50:03.683Z,5.7
2023-04-02T00:51:04.278Z,5.3
2023-04-02T00:52:04.867Z,3.9
2023-04-02T00:53:05.481Z,4.3
2023-04-02T00:54:06.080Z,6.1
2023-04-02T00:55:06.680Z,5.0
2023-04-02T00:56:07.281Z,5.0
2023-04-02T00:57:07.925Z,5.2
2023-04-02T00:58:08.487Z,7.5
2023-04-02T00:59:09.083Z,5.0
2023-04-02T01:00:09.674Z,4.8
2023-04-02T01:01:10.269Z,5.8
2023-04-02T01:02:10.934Z,5.6
2023-04-02T01:03:11.747Z,5.7
2023-04-02T01:04:12.319Z,7.2
2023-04-02T01:05:12.910Z,6.7
2023-04-02T01:06:13.507Z,5.9
2023-04-02T01:07:14.120Z,6.2
2023-04-02T01:08:14.709Z,6.5
2023-04-02T01:09:15.301Z,6.3
2023-04-02T01:10:15.913Z,7.7
2023-04-02T01:11:16.633Z,8.5
2023-04-02T01:12:17.241Z,6.7
2023-04-02T01:13:17.845Z,8.3
2023-04-02T01:14:18.422Z,8.7
2023-04-02T01:15:19.020Z,6.0
2023-04-02T01:16:19.667Z,6.3
2023-04-02T01:17:20.214Z,6.4
2023-04-02T01:18:20.798Z,5.7
2023-04-02T01:19:21.414Z,9.3
2023-04-02T01:20:22.004Z,7.2
2023-04-02T01:21:22.600Z,6.9
2023-04-02T01:22:23.198Z,6.8
2023-04-02T01:23:23.803Z,6.0
2023-04-02T01:24:24.397Z,7.3
2023-04-02T01:25:25.007Z,6.7
2023-04-02T01:26:25.600Z,8.1
2023-04-02T01:27:26.202Z,6.3
2023-04-02T01:28:26.784Z,6.2
2023-04-02T01:29:27.379Z,6.8
2023-04-02T01:30:27.970Z,7.6
2023-04-02T01:31:28.597Z,7.8
2023-04-02T01:32:29.220Z,7.1
2023-04-02T01:33:29.821Z,10.1
2023-04-02T01:34:30.410Z,7.5
2023-04-02T01:35:31.010Z,7.0
2023-04-02T01:36:31.596Z,9.9
2023-04-02T01:37:32.241Z,11.0
2023-04-02T01:38:33.023Z,7.6
2023-04-02T01:39:33.642Z,9.1
2023-04-02T01:40:34.228Z,8.4
2023-04-02T01:41:34.839Z,6.7
2023-04-02T01:42:35.431Z,8.9
2023-04-02T01:43:36.035Z,6.6
2023-04-02T01:44:36.620Z,7.1
2023-04-02T01:45:37.524Z,8.0
2023-04-02T01:46:38.349Z,6.0
2023-04-02T01:47:38.998Z,9.2
2023-04-02T01:48:39.553Z,12.0
2023-04-02T01:49:40.186Z,13.7
2023-04-02T01:50:40.758Z,6.9
2023-04-02T01:51:41.353Z,13.0
2023-04-02T01:52:41.965Z,6.7
2023-04-02T01:53:42.571Z,7.0
2023-04-02T01:54:43.155Z,6.0
2023-04-02T01:55:43.746Z,6.4
2023-04-02T01:56:44.371Z,4.9
2023-04-02T01:57:44.950Z,5.4
2023-04-02T01:58:45.544Z,9.2
2023-04-02T01:59:46.140Z,9.2
2023-04-02T02:00:46.780Z,11.0
2023-04-02T02:01:47.390Z,7.4
2023-04-02T02:02:47.987Z,6.3
2023-04-02T02:03:48.551Z,6.4
2023-04-02T02:04:49.161Z,5.1
2023-04-02T02:05:49.752Z,4.7
2023-04-02T02:06:50.349Z,5.3
2023-04-02T02:07:50.958Z,6.7
2023-04-02T02:08:51.562Z,5.3
2023-04-02T02:09:52.160Z,6.7
2023-04-02T02:10:52.933Z,8.5
2023-04-02T02:11:53.527Z,4.6
2023-04-02T02:12:54.122Z,10.1
2023-04-02T02:13:54.736Z,5.5
2023-04-02T02:14:55.337Z,5.3
2023-04-02T02:15:55.942Z,8.6
2023-04-02T02:16:56.535Z,6.5
2023-04-02T02:17:57.165Z,8.5
2023-04-02T02:18:57.724Z,4.6
2023-04-02T02:19:58.341Z,6.2
2023-04-02T02:20:58.946Z,7.8
2023-04-02T02:21:59.546Z,4.2
2023-04-02T02:23:00.159Z,4.7
2023-04-02T02:24:00.742Z,4.6
2023-04-02T02:25:01.354Z,4.2
2023-04-02T02:26:01.959Z,4.0
2023-04-02T02:27:02.537Z,4.3
2023-04-02T02:28:03.131Z,6.1
2023-04-02T02:29:03.739Z,5.2
2023-04-02T02:30:04.317Z,5.6
2023-04-02T02:31:04.947Z,5.9
2023-04-02T02:32:05.596Z,7.7
2023-04-02T02:33:06.163Z,4.1
2023-04-02T02:34:06.756Z,5.2
2023-04-02T02:35:07.349Z,5.9
2023-04-02T02:36:07.986Z,4.0
2023-04-02T02:37:08.554Z,4.0
2023-04-02T02:38:09.163Z,6.1
2023-04-02T02:39:09.759Z,4.5
2023-04-02T02:40:10.365Z,6.8
2023-04-02T02:41:10.958Z,5.9
2023-04-02T02:42:11.572Z,4.4
2023-04-02T02:43:12.149Z,8.1
2023-04-02T02:44:12.754Z,7.7
2023-04-02T02:45:13.326Z,7.4
2023-04-02T02:46:13.969Z,4.0
2023-04-02T02:47:14.525Z,4.8
2023-04-02T02:48:15.117Z,4.2
2023-04-02T02:49:15.712Z,4.5
2023-04-02T02:50:16.305Z,3.8
2023-04-02T02:51:16.915Z,5.7
2023-04-02T02:52:17.500Z,3.6
2023-04-02T02:53:18.092Z,4.2
2023-04-02T02:54:18.680Z,4.8
2023-04-02T02:55:19.326Z,4.8
2023-04-02T02:56:19.915Z,3.4
2023-04-02T02:57:20.558Z,4.4
2023-04-02T02:58:21.123Z,4.8
2023-04-02T02:59:21.745Z,4.2
2023-04-02T03:00:22.308Z,6.2
2023-04-02T03:01:23.085Z,2.9
2023-04-02T03:02:23.757Z,4.4
2023-04-02T03:03:24.484Z,5.7
2023-04-02T03:04:25.051Z,4.9
2023-04-02T03:05:25.554Z,3.8
2023-04-02T03:06:26.185Z,6.6
2023-04-02T03:07:26.761Z,3.7
2023-04-02T03:08:27.348Z,3.4
2023-04-02T03:09:27.942Z,3.5
2023-04-02T03:10:28.547Z,3.6
2023-04-02T03:11:29.135Z,3.5
2023-04-02T03:12:29.743Z,7.4
2023-04-02T03:13:30.334Z,4.0
2023-04-02T03:14:30.937Z,3.8
2023-04-02T03:15:31.539Z,4.1
2023-04-02T03:16:32.116Z,3.1
2023-04-02T03:17:32.749Z,3.0
2023-04-02T03:18:33.321Z,4.8
2023-04-02T03:19:33.918Z,9.0
2023-04-02T03:20:34.508Z,3.7
2023-04-02T03:21:35.123Z,5.5
2023-04-02T03:22:35.758Z,2.9
2023-04-02T03:23:36.306Z,3.0
2023-04-02T03:24:36.900Z,2.9
2023-04-02T03:25:37.590Z,4.3
2023-04-02T03:26:38.263Z,4.6
2023-04-02T03:27:38.865Z,3.4
2023-04-02T03:28:39.456Z,4.7
2023-04-02T03:29:40.051Z,4.6
2023-04-02T03:30:40.648Z,6.3
2023-04-02T03:31:41.285Z,5.6
2023-04-02T03:32:41.961Z,3.6
2023-04-02T03:33:42.520Z,5.0
2023-04-02T03:34:43.103Z,4.9
2023-04-02T03:35:43.730Z,3.4
2023-04-02T03:36:44.308Z,7.0
2023-04-02T03:37:44.900Z,2.5
2023-04-02T03:38:45.518Z,4.9
2023-04-02T03:39:46.088Z,5.4
2023-04-02T03:40:46.682Z,4.7
2023-04-02T03:41:47.276Z,6.0
2023-04-02T03:42:47.875Z,2.6
2023-04-02T03:43:48.483Z,5.0
2023-04-02T03:44:49.077Z,6.8
2023-04-02T03:45:49.672Z,5.1
2023-04-02T03:46:50.353Z,4.6
2023-04-02T03:47:50.961Z,4.8
2023-04-02T03:48:51.565Z,6.6
2023-04-02T03:49:52.160Z,2.7
2023-04-02T03:50:52.752Z,5.0
2023-04-02T03:51:53.339Z,3.7
2023-04-02T03:52:53.937Z,4.3
2023-04-02T03:53:54.549Z,3.1
2023-04-02T03:54:55.142Z,6.1
2023-04-02T03:55:55.733Z,6.5
2023-04-02T03:56:56.354Z,3.3
2023-04-02T03:57:56.986Z,4.8
2023-04-02T03:58:57.550Z,4.2
2023-04-02T03:59:58.142Z,4.0
2023-04-02T04:00:58.756Z,7.2
2023-04-02T04:01:59.426Z,5.2
2023-04-02T04:03:00.017Z,2.4
2023-04-02T04:04:00.629Z,5.5
2023-04-02T04:05:01.190Z,5.1
2023-04-02T04:06:01.781Z,3.7
2023-04-02T04:07:02.374Z,2.2
2023-04-02T04:08:02.970Z,3.3
2023-04-02T04:09:03.559Z,4.0
2023-04-02T04:10:04.155Z,6.0
2023-04-02T04:11:04.793Z,4.9
2023-04-02T04:12:05.336Z,4.7
2023-04-02T04:13:05.931Z,2.5
2023-04-02T04:14:06.522Z,2.3
2023-04-02T04:15:07.112Z,5.2
2023-04-02T04:16:07.853Z,3.0
2023-04-02T04:17:08.420Z,5.1
2023-04-02T04:18:09.081Z,2.8
2023-04-02T04:19:09.621Z,2.6
2023-04-02T04:20:10.212Z,3.7
2023-04-02T04:21:10.806Z,5.9
2023-04-02T04:22:11.401Z,4.0
2023-04-02T04:23:12.008Z,2.3
2023-04-02T04:24:12.600Z,5.6
2023-04-02T04:25:13.218Z,2.5
2023-04-02T04:26:13.804Z,5.6
2023-04-02T04:27:14.400Z,5.0
2023-04-02T04:28:15.013Z,3.8
2023-04-02T04:29:15.612Z,3.6
2023-04-02T04:30:16.219Z,7.4
2023-04-02T04:31:16.812Z,4.2
2023-04-02T04:32:17.415Z,2.8
2023-04-02T04:33:18.009Z,4.6
2023-04-02T04:34:18.615Z,4.1
2023-04-02T04:35:19.226Z,5.1
2023-04-02T04:36:19.842Z,4.7
2023-04-02T04:37:20.431Z,5.2
2023-04-02T04:38:21.024Z,2.2
2023-04-02T04:39:21.629Z,6.4
2023-04-02T04:40:22.210Z,2.2
2023-04-02T04:41:22.807Z,5.4
2023-04-02T04:42:23.395Z,2.8
2023-04-02T04:43:23.993Z,4.4
2023-04-02T04:44:24.600Z,3.7
2023-04-02T04:45:25.195Z,2.5
2023-04-02T04:46:25.845Z,5.6
2023-04-02T04:47:26.569Z,2.9
2023-04-02T04:48:27.153Z,4.8
2023-04-02T04:49:27.709Z,2.9
2023-04-02T04:50:28.300Z,3.6
2023-04-02T04:51:28.907Z,2.8
2023-04-02T04:52:29.496Z,5.3
2023-04-02T04:53:30.115Z,2.1
2023-04-02T04:54:30.705Z,3.2
2023-04-02T04:55:31.301Z,2.7
2023-04-02T04:56:31.894Z,2.8
2023-04-02T04:57:32.520Z,3.1
2023-04-02T04:58:33.114Z,3.7
2023-04-02T04:59:33.722Z,4.7
2023-04-02T05:00:34.333Z,3.0
2023-04-02T05:01:34.955Z,5.9
2023-04-02T05:02:35.552Z,3.4
2023-04-02T05:03:36.132Z,3.6
2023-04-02T05:04:36.769Z,3.1
2023-04-02T05:05:37.385Z,2.2
2023-04-02T05:06:37.952Z,3.3
2023-04-02T05:07:38.547Z,2.2
2023-04-02T05:08:39.166Z,4.0
2023-04-02T05:09:39.764Z,1.9
2023-04-02T05:10:40.362Z,6.0
2023-04-02T05:11:40.963Z,3.8
2023-04-02T05:12:41.556Z,2.2
2023-04-02T05:13:42.155Z,2.2
2023-04-02T05:14:42.750Z,4.3
2023-04-02T05:15:43.396Z,2.9
2023-04-02T05:16:43.967Z,3.1
2023-04-02T05:17:44.592Z,3.2
2023-04-02T05:18:45.180Z,3.3
2023-04-02T05:19:45.778Z,2.8
2023-04-02T05:20:46.374Z,5.5
2023-04-02T05:21:46.974Z,2.2
2023-04-02T05:22:47.585Z,2.9
2023-04-02T05:23:48.181Z,2.0
2023-04-02T05:24:48.811Z,3.2
2023-04-02T05:25:49.377Z,4.2
2023-04-02T05:26:49.972Z,2.3
2023-04-02T05:27:50.584Z,1.9
2023-04-02T05:28:51.219Z,1.7
2023-04-02T05:29:51.796Z,2.0
2023-04-02T05:30:52.411Z,4.0
2023-04-02T05:31:53.004Z,2.2
2023-04-02T05:32:53.676Z,3.5
2023-04-02T05:33:54.232Z,3.7
2023-04-02T05:34:54.843Z,4.4
2023-04-02T05:35:55.486Z,2.0
2023-04-02T05:36:56.079Z,2.9
2023-04-02T05:37:56.665Z,3.0
2023-04-02T05:38:57.264Z,1.7
2023-04-02T05:39:57.861Z,5.4
2023-04-02T05:40:58.462Z,3.3
2023-04-02T05:41:59.055Z,3.8
2023-04-02T05:42:59.655Z,5.4
2023-04-02T05:44:00.251Z,4.8
2023-04-02T05:45:00.862Z,3.3
2023-04-02T05:46:01.457Z,3.0
2023-04-02T05:47:02.049Z,3.6
2023-04-02T05:48:02.675Z,3.1
2023-04-02T05:49:03.253Z,5.0
2023-04-02T05:50:03.850Z,2.5
2023-04-02T05:51:04.447Z,3.7
2023-04-02T05:52:05.043Z,2.2
2023-04-02T05:53:05.643Z,3.2
2023-04-02T05:54:06.253Z,4.6
2023-04-02T05:55:06.874Z,2.0
2023-04-02T05:56:07.476Z,1.6
2023-04-02T05:57:08.137Z,1.6
2023-04-02T05:58:31.980Z,2.1
2023-04-02T05:59:09.307Z,2.1
2023-04-02T06:00:09.907Z,2.0
2023-04-02T06:01:10.505Z,3.7
2023-04-02T06:02:11.123Z,7.3
2023-04-02T06:03:11.753Z,3.0
2023-04-02T06:04:12.374Z,2.6
2023-04-02T06:05:12.930Z,1.7
2023-04-02T06:06:14.639Z,5.3
2023-04-02T06:07:15.119Z,2.3
2023-04-02T06:08:15.723Z,2.2
2023-04-02T06:09:16.314Z,3.7
2023-04-02T06:10:16.912Z,1.8
2023-04-02T06:11:17.510Z,2.2
2023-04-02T06:12:18.105Z,3.5
2023-04-02T06:13:18.738Z,1.9
2023-04-02T06:14:19.332Z,1.5
2023-04-02T06:15:19.919Z,2.2
2023-04-02T06:16:20.556Z,3.5
2023-04-02T06:17:21.144Z,1.9
2023-04-02T06:18:21.756Z,2.1
2023-04-02T06:19:22.353Z,2.7
2023-04-02T06:20:22.956Z,2.0
2023-04-02T06:21:23.543Z,4.1
2023-04-02T06:22:24.138Z,2.8
2023-04-02T06:23:24.742Z,2.8
2023-04-02T06:24:25.337Z,1.7
2023-04-02T06:25:25.934Z,2.1
2023-04-02T06:26:26.541Z,2.8
2023-04-02T06:27:27.124Z,1.3
2023-04-02T06:28:27.722Z,3.9
2023-04-02T06:29:28.323Z,3.4
2023-04-02T06:30:28.920Z,4.2
2023-04-02T06:31:29.516Z,3.4
2023-04-02T06:32:30.129Z,1.4
2023-04-02T06:33:30.718Z,5.0
2023-04-02T06:34:31.316Z,3.0
2023-04-02T06:35:31.912Z,2.4
2023-04-02T06:36:32.521Z,1.3
2023-04-02T06:37:33.111Z,1.7
2023-04-02T06:38:33.729Z,3.5
2023-04-02T06:39:34.330Z,3.7
2023-04-02T06:40:34.934Z,2.3
2023-04-02T06:41:35.533Z,2.1
2023-04-02T06:42:36.124Z,3.2
2023-04-02T06:43:36.726Z,3.2
2023-04-02T06:44:37.324Z,3.9
2023-04-02T06:45:37.990Z,2.7
2023-04-02T06:46:38.553Z,3.2
2023-04-02T06:47:39.300Z,2.4
2023-04-02T06:48:39.883Z,1.4
2023-04-02T06:49:40.487Z,1.4
2023-04-02T06:50:41.082Z,3.5
2023-04-02T06:51:41.691Z,2.8
2023-04-02T06:52:42.304Z,3.4
2023-04-02T06:53:42.907Z,8.1
2023-04-02T06:54:43.569Z,2.0
2023-04-02T06:55:44.163Z,2.1
2023-04-02T06:56:44.760Z,1.9
2023-04-02T06:57:45.384Z,1.1
2023-04-02T06:58:45.980Z,2.0
2023-04-02T06:59:46.659Z,2.0
2023-04-02T07:00:47.209Z,4.0
2023-04-02T07:01:47.882Z,3.0
2023-04-02T07:02:48.464Z,1.4
2023-04-02T07:03:49.045Z,2.2
2023-04-02T07:04:49.701Z,3.3
2023-04-02T07:05:50.254Z,1.6
2023-04-02T07:06:50.848Z,3.1
2023-04-02T07:07:51.447Z,1.3
2023-04-02T07:08:52.050Z,1.4
2023-04-02T07:09:52.746Z,2.0
2023-04-02T07:10:53.348Z,3.1
2023-04-02T07:11:53.954Z,1.4
2023-04-02T07:12:54.540Z,1.7
2023-04-02T07:13:55.162Z,4.0
2023-04-02T07:14:55.828Z,1.8
2023-04-02T07:15:56.451Z,1.3
2023-04-02T07:16:57.009Z,1.6
2023-04-02T07:17:57.702Z,5.1
2023-04-02T07:18:58.273Z,2.3
2023-04-02T07:19:58.874Z,1.7
2023-04-02T07:20:59.466Z,1.5
2023-04-02T07:22:00.102Z,1.3
2023-04-02T07:23:00.690Z,1.1
2023-04-02T07:24:01.302Z,1.3
2023-04-02T07:25:01.912Z,1.5
2023-04-02T07:26:02.502Z,2.0
2023-04-02T07:27:03.093Z,2.1
2023-04-02T07:28:03.743Z,1.3
2023-04-02T07:29:04.301Z,1.2
2023-04-02T07:30:04.904Z,1.7
2023-04-02T07:31:05.529Z,2.2
2023-04-02T07:32:06.115Z,3.6
2023-04-02T07:33:06.763Z,2.1
2023-04-02T07:34:07.355Z,1.2
2023-04-02T07:35:07.956Z,2.5
2023-04-02T07:36:08.589Z,1.1
2023-04-02T07:37:09.168Z,1.1
2023-04-02T07:38:09.772Z,4.1
2023-04-02T07:39:10.365Z,1.6
2023-04-02T07:40:10.964Z,0.8
2023-04-02T07:41:11.563Z,3.0
2023-04-02T07:42:12.184Z,2.3
2023-04-02T07:43:12.783Z,1.3
2023-04-02T07:44:13.402Z,1.0
2023-04-02T07:45:14.000Z,1.3
2023-04-02T07:46:14.642Z,1.1
2023-04-02T07:47:15.210Z,2.7
2023-04-02T07:48:15.812Z,1.1
2023-04-02T07:49:16.416Z,4.1
2023-04-02T07:50:17.028Z,1.9
2023-04-02T07:51:17.632Z,4.6
2023-04-02T07:52:18.233Z,2.6
2023-04-02T07:53:18.845Z,1.3
2023-04-02T07:54:19.446Z,1.7
2023-04-02T07:55:20.052Z,1.7
2023-04-02T07:56:20.652Z,3.7
2023-04-02T07:57:21.266Z,1.7
2023-04-02T07:58:21.863Z,2.2
2023-04-02T07:59:22.465Z,1.7
2023-04-02T08:00:23.074Z,2.2
2023-04-02T08:01:23.664Z,2.9
2023-04-02T08:02:24.348Z,1.6
2023-04-02T08:03:25.015Z,2.2
2023-04-02T08:04:25.614Z,1.8
2023-04-02T08:05:26.241Z,1.0
2023-04-02T08:06:26.860Z,1.5
2023-04-02T08:07:27.454Z,1.6
2023-04-02T08:08:28.085Z,2.3
2023-04-02T08:09:28.697Z,1.3
2023-04-02T08:10:29.296Z,2.4
2023-04-02T08:11:31.721Z,3.0
2023-04-02T08:12:31.490Z,2.2
2023-04-02T08:13:32.096Z,2.1
2023-04-02T08:14:32.687Z,1.8
2023-04-02T08:15:33.663Z,2.8
2023-04-02T08:16:34.466Z,2.9
2023-04-02T08:17:35.046Z,1.8
2023-04-02T08:18:35.648Z,1.3
2023-04-02T08:19:44.641Z,1.3
2023-04-02T08:20:37.839Z,1.5
2023-04-02T08:21:38.441Z,1.7
2023-04-02T08:22:39.046Z,1.6
2023-04-02T08:23:39.637Z,1.2
2023-04-02T08:24:40.238Z,1.5
2023-04-02T08:25:40.836Z,2.1
2023-04-02T08:26:42.311Z,2.5
2023-04-02T08:27:42.049Z,1.4
2023-04-02T08:28:42.652Z,1.7
2023-04-02T08:29:43.255Z,1.0
2023-04-02T08:30:43.899Z,2.0
2023-04-02T08:31:44.474Z,2.1
2023-04-02T08:32:45.117Z,1.7
2023-04-02T08:33:45.686Z,1.5
2023-04-02T08:34:46.287Z,1.5
2023-04-02T08:35:46.958Z,3.2
2023-04-02T08:36:47.501Z,1.3
2023-04-02T08:37:48.099Z,2.6
2023-04-02T08:38:48.701Z,1.7
2023-04-02T08:39:49.317Z,1.2
2023-04-02T08:40:49.919Z,1.2
2023-04-02T08:41:50.518Z,2.3
2023-04-02T08:42:51.118Z,2.5
2023-04-02T08:43:51.708Z,3.1
2023-04-02T08:44:52.316Z,1.1
2023-04-02T08:45:52.929Z,1.9
2023-04-02T08:46:53.505Z,2.0
2023-04-02T08:47:54.181Z,1.4
2023-04-02T08:48:54.714Z,1.0
2023-04-02T08:49:55.312Z,1.3
2023-04-02T08:50:55.914Z,1.8
2023-04-02T08:51:56.528Z,1.0
2023-04-02T08:52:57.127Z,0.9
2023-04-02T08:53:57.748Z,5.7
2023-04-02T08:54:58.366Z,1.9
2023-04-02T08:55:58.962Z,2.6
2023-04-02T08:56:59.588Z,2.0
2023-04-02T08:58:00.159Z,1.4
2023-04-02T08:59:00.770Z,1.7
2023-04-02T09:00:01.397Z,2.0
2023-04-02T09:01:01.986Z,1.6
2023-04-02T09:02:02.652Z,2.2
2023-04-02T09:03:03.244Z,1.3
2023-04-02T09:04:03.828Z,1.7
2023-04-02T09:05:04.469Z,2.3
2023-04-02T09:06:05.038Z,3.7
2023-04-02T09:07:05.635Z,3.5
2023-04-02T09:08:06.254Z,2.4
2023-04-02T09:09:06.838Z,2.7
2023-04-02T09:10:07.465Z,5.0
2023-04-02T09:11:08.084Z,2.8
2023-04-02T09:12:08.676Z,1.7
2023-04-02T09:13:09.277Z,1.5
2023-04-02T09:14:09.896Z,1.7
2023-04-02T09:15:10.516Z,1.6
2023-04-02T09:16:11.183Z,2.3
2023-04-02T09:17:11.750Z,2.3
2023-04-02T09:18:12.433Z,1.7
2023-04-02T09:19:13.004Z,2.2
2023-04-02T09:20:13.609Z,1.2
2023-04-02T09:21:14.223Z,1.3
2023-04-02T09:22:14.825Z,2.6
2023-04-02T09:23:15.420Z,2.1
2023-04-02T09:24:16.023Z,2.6
2023-04-02T09:25:16.621Z,1.4
2023-04-02T09:26:17.247Z,2.3
2023-04-02T09:27:17.838Z,1.0
2023-04-02T09:28:18.442Z,1.7
2023-04-02T09:29:19.060Z,1.5
2023-04-02T09:30:19.662Z,1.2
2023-04-02T09:31:20.278Z,1.4
2023-04-02T09:32:20.857Z,1.5
2023-04-02T09:33:21.456Z,2.0
2023-04-02T09:34:22.058Z,3.3
2023-04-02T09:35:36.398Z,1.7
2023-04-02T09:36:24.262Z,3.7
2023-04-02T09:37:24.848Z,1.8
2023-04-02T09:38:25.452Z,2.0
2023-04-02T09:39:26.068Z,1.7
2023-04-02T09:40:26.678Z,2.6
2023-04-02T09:41:27.266Z,1.5
2023-04-02T09:42:27.871Z,1.5
2023-04-02T09:43:28.467Z,2.1
2023-04-02T09:44:29.069Z,1.2
2023-04-02T09:45:29.666Z,2.2
2023-04-02T09:46:30.327Z,2.5
2023-04-02T09:47:30.903Z,2.7
2023-04-02T09:48:31.534Z,1.3
2023-04-02T09:49:32.098Z,1.8
2023-04-02T09:50:32.714Z,1.6
2023-04-02T09:51:33.317Z,2.4
2023-04-02T09:52:33.911Z,1.4
2023-04-02T09:53:34.516Z,2.6
2023-04-02T09:54:35.109Z,2.4
2023-04-02T09:55:35.834Z,1.4
2023-04-02T09:56:36.465Z,1.7
2023-04-02T09:57:37.066Z,2.8
2023-04-02T09:58:37.670Z,3.5
2023-04-02T09:59:38.264Z,3.3
2023-04-02T10:00:38.867Z,1.6
2023-04-02T10:01:39.591Z,2.5
2023-04-02T10:02:40.211Z,2.5
2023-04-02T10:03:40.822Z,1.4
2023-04-02T10:04:41.541Z,2.0
2023-04-02T10:05:42.164Z,1.3
2023-04-02T10:06:42.745Z,2.3
2023-04-02T10:07:43.345Z,2.3
2023-04-02T10:08:43.951Z,1.8
2023-04-02T10:09:44.542Z,1.7
2023-04-02T10:10:45.144Z,1.9
2023-04-02T10:11:46.905Z,3.2
2023-04-02T10:12:47.344Z,4.3
2023-04-02T10:13:47.931Z,7.0
2023-04-02T10:14:48.578Z,5.2
2023-04-02T10:15:49.153Z,1.6
2023-04-02T10:16:49.784Z,2.3
2023-04-02T10:17:50.401Z,2.6
2023-04-02T10:18:50.963Z,3.8
2023-04-02T10:19:51.558Z,1.1
2023-04-02T10:20:52.174Z,2.5
2023-04-02T10:21:52.782Z,3.6
2023-04-02T10:22:53.377Z,2.0
2023-04-02T10:23:53.974Z,2.7
2023-04-02T10:24:54.596Z,5.5
2023-04-02T10:25:55.191Z,1.2
2023-04-02T10:26:55.798Z,3.7
2023-04-02T10:27:56.392Z,1.5
2023-04-02T10:28:57.000Z,2.0
2023-04-02T10:29:57.594Z,1.8
2023-04-02T10:30:58.216Z,1.9
2023-04-02T10:31:58.805Z,1.6
2023-04-02T10:32:59.437Z,2.8
2023-04-02T10:34:00.022Z,1.7
2023-04-02T10:35:00.644Z,2.1
2023-04-02T10:36:01.273Z,2.5
2023-04-02T10:37:01.862Z,4.2
2023-04-02T10:38:02.462Z,2.5
2023-04-02T10:39:03.070Z,1.9
2023-04-02T10:40:03.685Z,2.4
2023-04-02T10:41:04.287Z,1.2
2023-04-02T10:42:04.888Z,1.3
2023-04-02T10:43:05.507Z,1.9
2023-04-02T10:44:13.141Z,2.0
2023-04-02T10:45:06.720Z,1.5
2023-04-02T10:46:07.333Z,1.2
2023-04-02T10:47:07.937Z,2.0
2023-04-02T10:48:08.562Z,1.8
2023-04-02T10:49:09.227Z,1.6
2023-04-02T10:50:09.798Z,1.7
2023-04-02T10:51:10.412Z,1.5
2023-04-02T10:52:11.012Z,1.5
2023-04-02T10:53:11.629Z,2.6
2023-04-02T10:54:12.221Z,1.2
2023-04-02T10:55:12.814Z,2.4
2023-04-02T10:56:13.416Z,1.1
2023-04-02T10:57:14.065Z,3.2
2023-04-02T10:58:14.638Z,1.8
2023-04-02T10:59:15.236Z,2.3
2023-04-02T11:00:15.876Z,4.0
2023-04-02T11:01:16.503Z,1.4
2023-04-02T11:02:17.104Z,2.5
2023-04-02T11:03:17.824Z,2.0
2023-04-02T11:04:18.295Z,2.3
2023-04-02T11:05:18.897Z,3.4
2023-04-02T11:06:19.495Z,2.5
2023-04-02T11:07:20.103Z,6.8
2023-04-02T11:08:20.702Z,2.1
2023-04-02T11:09:21.299Z,5.2
2023-04-02T11:10:21.892Z,6.3
2023-04-02T11:11:22.499Z,2.6
2023-04-02T11:12:23.097Z,1.8
2023-04-02T11:13:23.704Z,2.1
2023-04-02T11:14:24.303Z,3.9
2023-04-02T11:15:24.907Z,2.3
2023-04-02T11:16:25.526Z,2.5
2023-04-02T11:17:26.168Z,1.6
2023-04-02T11:18:26.724Z,2.2
2023-04-02T11:19:27.327Z,5.1
2023-04-02T11:20:27.944Z,2.3
2023-04-02T11:21:28.544Z,1.4
2023-04-02T11:22:29.146Z,2.0
2023-04-02T11:23:29.744Z,3.0
2023-04-02T11:24:30.361Z,2.7
2023-04-02T11:25:30.947Z,2.9
2023-04-02T11:26:31.543Z,3.4
2023-04-02T11:27:32.150Z,4.2
2023-04-02T11:28:32.748Z,3.5
2023-04-02T11:29:33.359Z,1.9
2023-04-02T11:30:33.950Z,2.4
2023-04-02T11:31:34.591Z,1.6
2023-04-02T11:32:35.293Z,1.0
2023-04-02T11:33:37.304Z,2.6
2023-04-02T11:34:36.401Z,2.2
2023-04-02T11:35:37.415Z,1.1
2023-04-02T11:36:38.202Z,1.2
2023-04-02T11:37:38.809Z,2.5
2023-04-02T11:38:39.430Z,2.4
2023-04-02T11:39:40.036Z,1.7
2023-04-02T11:40:40.630Z,8.4
2023-04-02T11:41:41.228Z,3.0
2023-04-02T11:42:41.858Z,1.5
2023-04-02T11:43:42.465Z,2.9
2023-04-02T11:44:43.065Z,1.6
2023-04-02T11:45:52.475Z,2.7
2023-04-02T11:46:44.314Z,2.8
2023-04-02T11:47:44.903Z,1.2
2023-04-02T11:48:45.520Z,5.2
2023-04-02T11:49:46.136Z,1.9
2023-04-02T11:50:46.773Z,2.5
2023-04-02T11:51:47.455Z,1.1
2023-04-02T11:52:48.053Z,1.3
2023-04-02T11:53:48.655Z,1.7
2023-04-02T11:54:49.254Z,1.6
2023-04-02T11:55:49.857Z,1.6
2023-04-02T11:56:50.522Z,1.8
2023-04-02T11:57:51.075Z,1.6
2023-04-02T11:58:51.675Z,1.6
2023-04-02T11:59:52.295Z,0.9
2023-04-02T12:00:52.895Z,1.8
2023-04-02T12:01:53.553Z,1.1
2023-04-02T12:02:54.163Z,1.5
2023-04-02T12:03:54.725Z,1.7
2023-04-02T12:04:55.355Z,1.8
2023-04-02T12:05:55.922Z,1.4
2023-04-02T12:06:56.523Z,2.2
2023-04-02T12:07:57.131Z,2.2
2023-04-02T12:08:58.355Z,1.5
2023-04-02T12:09:58.999Z,2.8
2023-04-02T12:10:59.682Z,1.6
2023-04-02T12:12:00.217Z,3.5
2023-04-02T12:13:00.846Z,2.2
2023-04-02T12:14:01.444Z,2.5
2023-04-02T12:15:02.037Z,2.3
2023-04-02T12:16:02.660Z,1.4
2023-04-02T12:17:03.341Z,1.5
2023-04-02T12:18:04.081Z,1.4
2023-04-02T12:19:04.689Z,2.3
2023-04-02T12:20:06.042Z,3.8
2023-04-02T12:21:06.604Z,5.6
2023-04-02T12:22:07.231Z,8.4
2023-04-02T12:23:07.823Z,4.9
2023-04-02T12:24:08.441Z,3.4
2023-04-02T12:25:09.046Z,1.5
2023-04-02T12:26:09.662Z,2.4
2023-04-02T12:27:10.264Z,1.8
2023-04-02T12:28:10.866Z,1.3
2023-04-02T12:29:11.502Z,1.6
2023-04-02T12:30:12.105Z,3.0
2023-04-02T12:31:12.821Z,1.7
2023-04-02T12:32:13.440Z,1.5
2023-04-02T12:33:14.080Z,2.9
2023-04-02T12:34:14.654Z,1.8
2023-04-02T12:35:15.279Z,2.5
2023-04-02T12:36:15.918Z,2.6
2023-04-02T12:37:16.487Z,2.4
2023-04-02T12:38:17.088Z,1.5
2023-04-02T12:39:17.687Z,2.5
2023-04-02T12:40:18.302Z,2.1
2023-04-02T12:41:18.905Z,5.0
2023-04-02T12:42:19.509Z,1.9
2023-04-02T12:43:20.127Z,3.7
2023-04-02T12:44:20.729Z,1.2
2023-04-02T12:45:21.328Z,1.0
2023-04-02T12:46:21.988Z,2.3
2023-04-02T12:47:22.556Z,2.6
2023-04-02T12:48:23.159Z,1.6
2023-04-02T12:49:23.767Z,2.1
2023-04-02T12:50:24.364Z,1.7
2023-04-02T12:51:26.751Z,1.3
2023-04-02T12:52:26.557Z,1.6
2023-04-02T12:53:27.158Z,1.1
2023-04-02T12:54:27.759Z,1.9
2023-04-02T12:55:28.356Z,2.4
2023-04-02T12:56:28.965Z,1.5
2023-04-02T12:57:29.620Z,1.4
2023-04-02T12:58:30.206Z,2.0
2023-04-02T12:59:30.805Z,2.7
2023-04-02T13:00:31.426Z,1.2
2023-04-02T13:01:32.245Z,1.9
2023-04-02T13:02:32.976Z,1.2
2023-04-02T13:03:33.534Z,1.4
2023-04-02T13:04:34.140Z,3.3
2023-04-02T13:05:34.734Z,1.0
2023-04-02T13:06:35.332Z,1.7
2023-04-02T13:07:35.935Z,2.2
2023-04-02T13:08:36.538Z,1.8
2023-04-02T13:09:37.172Z,0.9
2023-04-02T13:10:37.983Z,1.1
2023-04-02T13:11:38.768Z,0.9
2023-04-02T13:12:39.370Z,4.4
2023-04-02T13:13:39.971Z,1.8
2023-04-02T13:14:40.574Z,1.3
2023-04-02T13:15:41.215Z,0.8
2023-04-02T13:16:41.791Z,1.3
2023-04-02T13:17:42.441Z,1.1
2023-04-02T13:18:43.018Z,0.9
2023-04-02T13:19:43.598Z,2.5
2023-04-02T13:20:44.201Z,1.7
2023-04-02T13:21:44.796Z,1.7
2023-04-02T13:22:45.399Z,1.2
2023-04-02T13:23:46.032Z,1.2
2023-04-02T13:24:46.613Z,1.2
2023-04-02T13:25:47.223Z,1.3
2023-04-02T13:26:47.828Z,1.2
2023-04-02T13:27:48.419Z,2.0
2023-04-02T13:28:49.023Z,1.1
2023-04-02T13:29:49.619Z,1.6
2023-04-02T13:30:50.243Z,1.3
2023-04-02T13:31:50.881Z,1.6
2023-04-02T13:32:51.527Z,2.4
2023-04-02T13:33:52.118Z,1.9
2023-04-02T13:34:52.718Z,1.6
2023-04-02T13:35:53.332Z,1.4
2023-04-02T13:36:53.922Z,2.2
2023-04-02T13:37:54.574Z,1.3
2023-04-02T13:38:55.132Z,2.0
2023-04-02T13:39:55.731Z,1.3
2023-04-02T13:40:56.329Z,1.9
2023-04-02T13:41:56.954Z,1.1
2023-04-02T13:42:57.607Z,2.5
2023-04-02T13:43:58.172Z,2.0
2023-04-02T13:44:58.790Z,1.5
2023-04-02T13:45:59.449Z,1.8
2023-04-02T13:47:00.014Z,1.8
2023-04-02T13:48:00.664Z,1.1
2023-04-02T13:49:01.232Z,2.1
2023-04-02T13:50:01.850Z,3.2
2023-04-02T13:51:02.459Z,3.8
2023-04-02T13:52:03.114Z,2.1
2023-04-02T13:53:03.701Z,1.2
2023-04-02T13:54:04.302Z,1.3